Terminal Aerodrome Forecast
Issued by NWS Lake Charles, LA

Home | Current Version | Previous Version | Text Only | Print | Product List | Glossary On
Versions: 1 2 3 4 5 6 7 8 9 10 11 12
000
FTUS44 KLCH 121800 AAA
TAFAEX
TAF AMD
KAEX 121811Z 1218/1318 04005KT P6SM VCTS SCT045CB
      TEMPO 1218/1222 VRB15G25KT 3SM TSRA SCT025 OVC035CB
     FM130000 VRB03KT P6SM SKC=

USA.gov is the U.S. government's official web portal to all federal, state and local government web resources and services.